createdAt,value
2023-04-15T00:01:34.638Z,79.67
2023-04-15T00:04:01.975Z,79.73
2023-04-15T00:06:29.124Z,79.62
2023-04-15T00:08:55.904Z,79.68
2023-04-15T00:11:24.447Z,80.03
2023-04-15T00:13:51.324Z,79.97
2023-04-15T00:16:18.235Z,79.94
2023-04-15T00:18:45.200Z,80.08
2023-04-15T00:21:12.005Z,80.16
2023-04-15T00:23:38.954Z,79.84
2023-04-15T00:26:05.772Z,79.89
2023-04-15T00:28:32.696Z,80.24
2023-04-15T00:30:59.530Z,79.79
2023-04-15T00:33:26.874Z,80.21
2023-04-15T00:35:53.875Z,80.10
2023-04-15T00:38:20.825Z,79.97
2023-04-15T00:40:47.738Z,79.81
2023-04-15T00:43:14.647Z,80.12
2023-04-15T00:45:41.493Z,80.16
2023-04-15T00:48:10.432Z,80.31
2023-04-15T00:50:37.221Z,79.77
2023-04-15T00:53:04.090Z,80.03
2023-04-15T00:55:31.811Z,79.90
2023-04-15T00:57:59.208Z,80.00
2023-04-15T01:00:26.916Z,79.99
2023-04-15T01:02:53.923Z,79.76
2023-04-15T01:05:20.850Z,80.08
2023-04-15T01:07:48.943Z,80.28
2023-04-15T01:10:15.874Z,79.99
2023-04-15T01:12:43.447Z,79.82
2023-04-15T01:15:11.215Z,79.86
2023-04-15T01:17:39.413Z,79.80
2023-04-15T01:20:10.181Z,80.04
2023-04-15T01:22:38.428Z,79.85
2023-04-15T01:25:13.828Z,80.22
2023-04-15T01:27:42.421Z,80.39
2023-04-15T01:30:10.658Z,80.36
2023-04-15T01:32:37.984Z,79.94
2023-04-15T01:35:05.342Z,79.97
2023-04-15T01:37:32.697Z,80.10
2023-04-15T01:39:59.788Z,80.48
2023-04-15T01:42:26.612Z,80.41
2023-04-15T01:44:53.842Z,80.31
2023-04-15T01:47:20.887Z,80.39
2023-04-15T01:49:48.007Z,80.78
2023-04-15T01:52:14.805Z,80.75
2023-04-15T01:54:41.892Z,80.45
2023-04-15T01:57:08.653Z,80.62
2023-04-15T01:59:36.259Z,80.26
2023-04-15T02:02:03.235Z,80.70
2023-04-15T02:04:30.352Z,80.38
2023-04-15T02:07:00.816Z,80.68
2023-04-15T02:09:28.076Z,80.38
2023-04-15T02:11:54.988Z,80.28
2023-04-15T02:14:22.221Z,80.65
2023-04-15T02:16:49.235Z,80.50
2023-04-15T02:19:16.454Z,80.73
2023-04-15T02:21:43.359Z,80.62
2023-04-15T02:24:10.480Z,80.59
2023-04-15T02:26:37.460Z,80.31
2023-04-15T02:29:04.396Z,80.32
2023-04-15T02:31:34.197Z,80.38
2023-04-15T02:34:03.136Z,80.19
2023-04-15T02:36:32.003Z,80.27
2023-04-15T02:38:59.033Z,80.20
2023-04-15T02:41:28.511Z,80.15
2023-04-15T02:43:55.929Z,80.69
2023-04-15T02:46:23.222Z,80.52
2023-04-15T02:48:51.052Z,80.47
2023-04-15T02:51:20.418Z,79.92
2023-04-15T02:53:48.663Z,80.23
2023-04-15T02:56:16.029Z,80.07
2023-04-15T02:58:45.201Z,79.91
2023-04-15T03:01:12.266Z,80.24
2023-04-15T03:03:40.161Z,80.22
2023-04-15T03:06:07.069Z,79.82
2023-04-15T03:08:34.376Z,80.04
2023-04-15T03:11:02.686Z,80.20
2023-04-15T03:13:29.903Z,79.68
2023-04-15T03:15:58.505Z,79.87
2023-04-15T03:18:25.449Z,79.78
2023-04-15T03:20:52.302Z,79.80
2023-04-15T03:23:19.198Z,79.91
2023-04-15T03:25:46.274Z,79.56
2023-04-15T03:28:14.708Z,80.10
2023-04-15T03:30:41.875Z,80.01
2023-04-15T03:33:09.492Z,79.89
2023-04-15T03:35:36.991Z,80.17
2023-04-15T03:38:03.859Z,80.09
2023-04-15T03:40:30.809Z,80.02
2023-04-15T03:42:57.703Z,79.46
2023-04-15T03:45:24.530Z,80.02
2023-04-15T03:47:51.728Z,79.70
2023-04-15T03:50:18.649Z,79.90
2023-04-15T03:52:45.859Z,79.99
2023-04-15T03:55:12.787Z,79.73
2023-04-15T03:57:39.946Z,79.79
2023-04-15T04:00:08.061Z,79.67
2023-04-15T04:02:38.767Z,79.47
2023-04-15T04:05:06.448Z,79.58
2023-04-15T04:07:33.272Z,79.62
2023-04-15T04:10:00.126Z,79.89
2023-04-15T04:12:27.016Z,79.90
2023-04-15T04:14:53.809Z,79.48
2023-04-15T04:17:20.690Z,79.71
2023-04-15T04:19:47.529Z,79.56
2023-04-15T04:22:14.430Z,79.78
2023-04-15T04:24:41.330Z,80.07
2023-04-15T04:27:08.254Z,79.49
2023-04-15T04:29:35.128Z,79.51
2023-04-15T04:32:02.063Z,79.82
2023-04-15T04:34:28.886Z,79.71
2023-04-15T04:36:55.807Z,79.75
2023-04-15T04:39:22.686Z,79.73
2023-04-15T04:41:50.211Z,79.83
2023-04-15T04:44:17.062Z,79.94
2023-04-15T04:46:43.995Z,79.68
2023-04-15T04:49:10.896Z,79.73
2023-04-15T04:51:37.819Z,79.79
2023-04-15T04:54:04.614Z,79.86
2023-04-15T04:56:31.481Z,80.09
2023-04-15T04:58:58.355Z,80.15
2023-04-15T05:01:26.765Z,80.15
2023-04-15T05:03:53.821Z,80.17
2023-04-15T05:06:20.895Z,79.89
2023-04-15T05:08:48.410Z,79.94
2023-04-15T05:11:15.247Z,80.26
2023-04-15T05:13:42.222Z,80.19
2023-04-15T05:16:09.603Z,79.89
2023-04-15T05:18:36.959Z,80.35
2023-04-15T05:21:03.961Z,80.34
2023-04-15T05:23:31.133Z,80.14
2023-04-15T05:25:58.044Z,79.94
2023-04-15T05:28:24.942Z,80.16
2023-04-15T05:30:51.882Z,80.20
2023-04-15T05:33:19.200Z,80.42
2023-04-15T05:35:46.362Z,80.04
2023-04-15T05:38:13.295Z,80.49
2023-04-15T05:40:40.121Z,80.21
2023-04-15T05:43:07.063Z,79.96
2023-04-15T05:45:33.829Z,80.49
2023-04-15T05:48:00.771Z,80.52
2023-04-15T05:50:27.615Z,80.36
2023-04-15T05:52:54.569Z,80.24
2023-04-15T05:55:22.247Z,80.38
2023-04-15T05:57:49.107Z,80.37
2023-04-15T06:00:16.532Z,80.44
2023-04-15T06:02:43.615Z,80.50
2023-04-15T06:05:11.942Z,80.02
2023-04-15T06:07:38.949Z,80.55
2023-04-15T06:10:06.535Z,80.11
2023-04-15T06:12:33.517Z,80.05
2023-04-15T06:15:00.586Z,80.53
2023-04-15T06:17:27.595Z,80.26
2023-04-15T06:19:55.898Z,80.21
2023-04-15T06:22:23.591Z,79.79
2023-04-15T06:24:51.623Z,80.29
2023-04-15T06:27:18.887Z,79.81
2023-04-15T06:29:45.719Z,80.42
2023-04-15T06:32:13.239Z,79.90
2023-04-15T06:34:40.101Z,79.60
2023-04-15T06:37:07.181Z,80.18
2023-04-15T06:39:34.018Z,79.94
2023-04-15T06:42:01.750Z,80.14
2023-04-15T06:44:30.092Z,79.62
2023-04-15T06:46:58.089Z,79.76
2023-04-15T06:49:24.882Z,79.32
2023-04-15T06:51:51.763Z,79.50
2023-04-15T06:54:18.908Z,79.61
2023-04-15T06:56:45.812Z,79.22
2023-04-15T06:59:13.064Z,79.43
2023-04-15T07:01:42.063Z,79.09
2023-04-15T07:04:09.007Z,78.98
2023-04-15T07:06:35.864Z,79.21
2023-04-15T07:09:03.679Z,78.95
2023-04-15T07:11:31.071Z,78.58
2023-04-15T07:13:58.698Z,78.57
2023-04-15T07:16:27.878Z,78.91
2023-04-15T07:18:56.240Z,78.20
2023-04-15T07:21:24.063Z,78.72
2023-04-15T07:23:51.150Z,78.63
2023-04-15T07:26:18.104Z,78.72
2023-04-15T07:28:46.411Z,78.50
2023-04-15T07:31:13.980Z,78.14
2023-04-15T07:33:40.758Z,78.29
2023-04-15T07:36:08.011Z,78.31
2023-04-15T07:38:34.949Z,77.84
2023-04-15T07:41:01.756Z,77.58
2023-04-15T07:43:29.884Z,77.31
2023-04-15T07:45:56.709Z,77.05
2023-04-15T07:48:23.554Z,77.62
2023-04-15T07:50:50.411Z,76.94
2023-04-15T07:53:17.283Z,77.16
2023-04-15T07:55:44.099Z,77.01
2023-04-15T07:58:11.027Z,77.24
2023-04-15T08:00:38.617Z,77.00
2023-04-15T08:03:06.105Z,76.40
2023-04-15T08:05:33.296Z,76.32
2023-04-15T08:08:00.329Z,76.27
2023-04-15T08:10:27.418Z,76.60
2023-04-15T08:12:55.094Z,76.54
2023-04-15T08:15:22.382Z,76.45
2023-04-15T08:17:49.297Z,76.10
2023-04-15T08:20:16.248Z,76.02
2023-04-15T08:22:43.167Z,76.07
2023-04-15T08:25:10.527Z,75.76
2023-04-15T08:27:45.791Z,75.96
2023-04-15T08:30:13.166Z,76.04
2023-04-15T08:32:40.255Z,75.76
2023-04-15T08:35:07.964Z,75.21
2023-04-15T08:37:34.974Z,75.63
2023-04-15T08:40:01.768Z,75.20
2023-04-15T08:42:35.288Z,75.42
2023-04-15T08:45:04.792Z,75.07
2023-04-15T08:47:32.212Z,74.88
2023-04-15T08:49:59.690Z,75.08
2023-04-15T08:52:27.112Z,75.12
2023-04-15T08:54:59.042Z,74.77
2023-04-15T08:57:30.163Z,75.08
2023-04-15T08:59:57.832Z,74.77
2023-04-15T09:02:28.787Z,74.64
2023-04-15T09:04:56.831Z,74.93
2023-04-15T09:07:23.681Z,74.56
2023-04-15T09:09:51.506Z,74.42
2023-04-15T09:12:18.399Z,74.41
2023-04-15T09:14:47.358Z,74.57
2023-04-15T09:17:19.185Z,74.32
2023-04-15T09:19:46.170Z,74.11
2023-04-15T09:22:13.870Z,74.65
2023-04-15T09:24:42.339Z,74.47
2023-04-15T09:27:09.406Z,74.54
2023-04-15T09:29:37.302Z,74.16
2023-04-15T09:32:16.508Z,74.22
2023-04-15T09:34:43.756Z,74.24
2023-04-15T09:37:11.366Z,74.10
2023-04-15T09:39:50.134Z,74.46
2023-04-15T09:42:24.059Z,74.52
2023-04-15T09:44:52.775Z,74.13
2023-04-15T09:47:30.225Z,74.39
2023-04-15T09:49:58.303Z,74.27
2023-04-15T09:52:25.256Z,74.57
2023-04-15T09:54:55.111Z,74.37
2023-04-15T09:57:22.172Z,74.32
2023-04-15T09:59:49.072Z,74.26
2023-04-15T10:02:16.609Z,74.14
2023-04-15T10:04:43.582Z,74.42
2023-04-15T10:07:12.726Z,74.44
2023-04-15T10:09:39.982Z,73.97
2023-04-15T10:12:07.436Z,74.25
2023-04-15T10:14:38.911Z,74.27
2023-04-15T10:17:06.150Z,73.93
2023-04-15T10:19:34.303Z,74.11
2023-04-15T10:22:01.328Z,74.25
2023-04-15T10:24:28.564Z,73.86
2023-04-15T10:26:55.705Z,73.87
2023-04-15T10:29:24.332Z,73.85
2023-04-15T10:31:51.816Z,74.21
2023-04-15T10:34:18.802Z,74.38
2023-04-15T10:36:47.132Z,73.86
2023-04-15T10:39:42.170Z,74.38
2023-04-15T10:42:14.089Z,74.28
2023-04-15T10:44:45.942Z,74.08
2023-04-15T10:47:13.797Z,73.95
2023-04-15T10:49:45.779Z,74.52
2023-04-15T10:52:12.963Z,74.41
2023-04-15T10:54:39.933Z,74.23
2023-04-15T10:57:09.700Z,73.88
2023-04-15T10:59:38.684Z,73.95
2023-04-15T11:02:07.514Z,73.72
2023-04-15T11:04:57.952Z,73.66
2023-04-15T11:07:54.837Z,73.67
2023-04-15T11:10:57.180Z,74.10
2023-04-15T11:13:25.839Z,74.00
2023-04-15T11:15:56.863Z,73.56
2023-04-15T11:18:30.669Z,73.77
2023-04-15T11:21:01.263Z,73.79
2023-04-15T11:23:31.549Z,73.56
2023-04-15T11:26:00.021Z,73.59
2023-04-15T11:28:28.486Z,73.17
2023-04-15T11:30:56.125Z,73.45
2023-04-15T11:33:24.213Z,73.21
2023-04-15T11:35:53.677Z,73.24
2023-04-15T11:38:20.529Z,73.38
2023-04-15T11:40:47.520Z,72.97
2023-04-15T11:43:16.750Z,73.09
2023-04-15T11:45:55.970Z,73.11
2023-04-15T11:48:25.617Z,72.87
2023-04-15T11:51:00.436Z,72.77
2023-04-15T11:53:47.880Z,72.82
2023-04-15T11:56:25.649Z,72.76
2023-04-15T11:58:57.067Z,72.46
2023-04-15T12:01:46.604Z,72.46
2023-04-15T12:04:15.431Z,72.35
2023-04-15T12:06:42.362Z,72.35
2023-04-15T12:09:17.331Z,72.25
2023-04-15T12:11:49.723Z,72.28
2023-04-15T12:14:35.234Z,72.02
2023-04-15T12:17:04.883Z,72.21
2023-04-15T12:19:40.228Z,71.98
2023-04-15T12:22:12.402Z,72.26
2023-04-15T12:24:39.799Z,72.32
2023-04-15T12:27:08.190Z,71.95
2023-04-15T12:29:36.947Z,72.10
2023-04-15T12:32:08.668Z,72.18
2023-04-15T12:34:43.032Z,71.96
2023-04-15T12:37:11.946Z,71.87
2023-04-15T12:39:41.272Z,71.91
2023-04-15T12:42:09.050Z,71.94
2023-04-15T12:44:37.277Z,71.80
2023-04-15T12:47:04.695Z,71.72
2023-04-15T12:49:32.919Z,71.72
2023-04-15T12:52:01.121Z,71.69
2023-04-15T12:54:29.360Z,71.74
2023-04-15T12:56:56.728Z,71.70
2023-04-15T12:59:26.700Z,71.52
2023-04-15T13:01:54.406Z,71.79
2023-04-15T13:04:22.328Z,71.85
2023-04-15T13:06:49.856Z,71.76
2023-04-15T13:09:16.943Z,71.49
2023-04-15T13:11:43.997Z,71.91
2023-04-15T13:14:14.073Z,71.70
2023-04-15T13:16:41.584Z,71.65
2023-04-15T13:19:08.656Z,71.43
2023-04-15T13:21:36.435Z,72.00
2023-04-15T13:24:04.526Z,72.26
2023-04-15T13:26:32.150Z,72.28
2023-04-15T13:28:59.537Z,72.01
2023-04-15T13:31:27.324Z,72.34
2023-04-15T13:33:54.524Z,72.18
2023-04-15T13:36:21.496Z,71.91
2023-04-15T13:38:51.012Z,72.13
2023-04-15T13:41:18.659Z,72.16
2023-04-15T13:43:45.701Z,72.80
2023-04-15T13:46:12.849Z,72.27
2023-04-15T13:48:39.881Z,72.70
2023-04-15T13:51:06.792Z,72.75
2023-04-15T13:53:39.145Z,72.86
2023-04-15T13:56:07.972Z,72.86
2023-04-15T13:58:34.937Z,72.83
2023-04-15T14:01:04.702Z,73.02
2023-04-15T14:03:33.358Z,73.19
2023-04-15T14:06:00.389Z,72.65
2023-04-15T14:08:27.323Z,73.21
2023-04-15T14:10:54.240Z,73.41
2023-04-15T14:13:21.104Z,72.79
2023-04-15T14:15:47.975Z,72.96
2023-04-15T14:18:14.971Z,72.95
2023-04-15T14:20:42.013Z,73.41
2023-04-15T14:23:08.861Z,73.75
2023-04-15T14:25:35.779Z,73.11
2023-04-15T14:28:03.559Z,73.44
2023-04-15T14:30:30.663Z,73.66
2023-04-15T14:32:57.680Z,73.59
2023-04-15T14:35:26.807Z,73.74
2023-04-15T14:37:54.568Z,73.72
2023-04-15T14:40:22.556Z,73.94
2023-04-15T14:42:49.577Z,73.79
2023-04-15T14:45:16.681Z,74.00
2023-04-15T14:47:44.049Z,73.46
2023-04-15T14:50:11.102Z,73.65
2023-04-15T14:52:41.045Z,73.59
2023-04-15T14:55:10.443Z,74.21
2023-04-15T14:57:38.284Z,73.69
2023-04-15T15:00:07.117Z,74.02
2023-04-15T15:02:39.125Z,74.08
2023-04-15T15:05:08.819Z,73.65
2023-04-15T15:07:37.383Z,74.08
2023-04-15T15:10:05.386Z,74.27
2023-04-15T15:12:33.016Z,74.45
2023-04-15T15:15:01.522Z,73.91
2023-04-15T15:17:28.692Z,74.21
2023-04-15T15:19:55.554Z,74.35
2023-04-15T15:22:22.368Z,74.20
2023-04-15T15:24:49.365Z,74.03
2023-04-15T15:27:16.241Z,74.40
2023-04-15T15:29:43.103Z,74.29
2023-04-15T15:32:09.925Z,74.28
2023-04-15T15:34:36.784Z,74.66
2023-04-15T15:37:03.595Z,74.67
2023-04-15T15:39:30.512Z,74.42
2023-04-15T15:41:57.439Z,74.69
2023-04-15T15:44:24.288Z,74.08
2023-04-15T15:46:51.299Z,75.18
2023-04-15T15:49:18.274Z,74.99
2023-04-15T15:51:46.010Z,74.52
2023-04-15T15:54:13.193Z,74.64
2023-04-15T15:56:40.174Z,75.04
2023-04-15T15:59:07.088Z,75.28
2023-04-15T16:01:34.127Z,74.94
2023-04-15T16:04:01.430Z,75.33
2023-04-15T16:06:28.839Z,74.97
2023-04-15T16:08:55.799Z,75.44
2023-04-15T16:11:23.430Z,75.26
2023-04-15T16:13:50.331Z,75.35
2023-04-15T16:16:17.211Z,75.48
2023-04-15T16:18:44.080Z,75.29
2023-04-15T16:21:10.935Z,75.19
2023-04-15T16:23:38.397Z,75.80
2023-04-15T16:26:05.499Z,75.63
2023-04-15T16:28:32.457Z,75.66
2023-04-15T16:30:59.993Z,75.79
2023-04-15T16:33:27.007Z,76.02
2023-04-15T16:35:53.866Z,75.96
2023-04-15T16:38:20.945Z,75.97
2023-04-15T16:40:47.861Z,75.93
2023-04-15T16:43:14.711Z,76.50
2023-04-15T16:45:41.704Z,76.26
2023-04-15T16:48:08.569Z,76.46
2023-04-15T16:50:37.213Z,75.83
2023-04-15T16:53:04.060Z,76.41
2023-04-15T16:55:57.264Z,76.87
2023-04-15T16:58:25.444Z,76.84
2023-04-15T17:00:52.593Z,76.93
2023-04-15T17:03:19.716Z,76.72
2023-04-15T17:05:46.569Z,77.49
2023-04-15T17:08:13.698Z,77.13
2023-04-15T17:10:40.546Z,77.15
2023-04-15T17:13:07.418Z,77.70
2023-04-15T17:15:34.652Z,77.80
2023-04-15T17:18:02.253Z,77.42
2023-04-15T17:20:30.135Z,77.96
2023-04-15T17:22:57.740Z,77.93
2023-04-15T17:25:24.628Z,77.94
2023-04-15T17:27:51.452Z,78.00
2023-04-15T17:30:19.268Z,78.31
2023-04-15T17:32:46.331Z,77.73
2023-04-15T17:35:13.483Z,78.12
2023-04-15T17:37:42.008Z,78.47
2023-04-15T17:40:11.570Z,78.00
2023-04-15T17:42:39.298Z,78.30
2023-04-15T17:45:08.792Z,78.23
2023-04-15T17:47:49.858Z,78.39
2023-04-15T17:50:18.807Z,78.21
2023-04-15T17:52:48.393Z,78.15
2023-04-15T17:55:16.325Z,78.14
2023-04-15T17:57:48.478Z,78.73
2023-04-15T18:00:19.079Z,78.66
2023-04-15T18:02:49.761Z,78.84
2023-04-15T18:05:22.581Z,78.77
2023-04-15T18:07:53.675Z,79.43
2023-04-15T18:10:22.282Z,79.07
2023-04-15T18:12:56.967Z,79.37
2023-04-15T18:15:26.581Z,78.87
2023-04-15T18:17:55.365Z,78.64
2023-04-15T18:20:22.285Z,78.90
2023-04-15T18:22:49.223Z,79.01
2023-04-15T18:25:16.040Z,79.36
2023-04-15T18:27:43.032Z,79.37
2023-04-15T18:30:11.170Z,79.00
2023-04-15T18:32:38.586Z,79.16
2023-04-15T18:35:06.080Z,79.12
2023-04-15T18:37:33.189Z,78.77
2023-04-15T18:40:00.064Z,78.69
2023-04-15T18:42:27.065Z,79.03
2023-04-15T18:44:54.606Z,78.96
2023-04-15T18:47:21.481Z,78.90
2023-04-15T18:49:48.475Z,78.65
2023-04-15T18:52:15.266Z,78.91
2023-04-15T18:54:42.166Z,78.57
2023-04-15T18:57:09.008Z,79.02
2023-04-15T18:59:36.316Z,78.59
2023-04-15T19:02:06.568Z,78.94
2023-04-15T19:04:33.824Z,78.44
2023-04-15T19:07:01.906Z,78.52
2023-04-15T19:09:29.411Z,78.21
2023-04-15T19:11:56.961Z,78.82
2023-04-15T19:14:23.979Z,78.22
2023-04-15T19:16:53.572Z,78.66
2023-04-15T19:19:24.672Z,78.44
2023-04-15T19:21:54.790Z,78.23
2023-04-15T19:24:24.455Z,78.64
2023-04-15T19:26:53.638Z,78.14
2023-04-15T19:29:24.578Z,78.56
2023-04-15T19:31:56.260Z,78.57
2023-04-15T19:34:29.648Z,78.57
2023-04-15T19:37:01.459Z,78.83
2023-04-15T19:39:35.764Z,78.60
2023-04-15T19:42:04.647Z,78.87
2023-04-15T19:44:33.662Z,79.03
2023-04-15T19:47:08.658Z,78.73
2023-04-15T19:49:42.478Z,78.80
2023-04-15T19:52:16.188Z,79.10
2023-04-15T19:54:47.112Z,79.04
2023-04-15T19:57:16.932Z,78.70
2023-04-15T19:59:46.415Z,79.29
2023-04-15T20:02:17.903Z,78.79
2023-04-15T20:04:47.690Z,79.12
2023-04-15T20:07:15.125Z,79.14
2023-04-15T20:09:43.929Z,79.26
2023-04-15T20:12:50.054Z,78.97
2023-04-15T20:14:57.696Z,79.17
2023-04-15T20:17:24.626Z,79.25
2023-04-15T20:19:51.641Z,79.45
2023-04-15T20:22:18.477Z,79.46
2023-04-15T20:24:45.557Z,79.34
2023-04-15T20:27:12.472Z,79.32
2023-04-15T20:29:39.431Z,79.64
2023-04-15T20:32:06.915Z,79.65
2023-04-15T20:34:34.117Z,79.60
2023-04-15T20:37:00.944Z,79.64
2023-04-15T20:39:27.746Z,79.44
2023-04-15T20:41:54.644Z,79.64
2023-04-15T20:44:21.635Z,79.51
2023-04-15T20:46:48.618Z,79.95
2023-04-15T20:49:15.471Z,79.68
2023-04-15T20:51:42.310Z,79.83
2023-04-15T20:54:09.140Z,79.82
2023-04-15T20:56:35.972Z,79.99
2023-04-15T20:59:03.099Z,79.67
2023-04-15T21:01:30.168Z,79.76
2023-04-15T21:03:58.534Z,80.22
2023-04-15T21:06:27.203Z,80.29
2023-04-15T21:08:54.041Z,80.27
2023-04-15T21:11:38.786Z,80.01
2023-04-15T21:14:11.014Z,79.99
2023-04-15T21:16:37.896Z,79.89
2023-04-15T21:19:05.171Z,80.10
2023-04-15T21:21:32.348Z,80.19
2023-04-15T21:23:59.525Z,80.40
2023-04-15T21:26:26.482Z,80.28
2023-04-15T21:28:53.356Z,80.25
2023-04-15T21:31:20.878Z,80.30
2023-04-15T21:33:47.780Z,80.01
2023-04-15T21:36:14.825Z,80.35
2023-04-15T21:38:41.620Z,80.37
2023-04-15T21:41:09.841Z,80.29
2023-04-15T21:43:37.267Z,80.68
2023-04-15T21:46:21.226Z,80.29
2023-04-15T21:48:51.612Z,80.44
2023-04-15T21:51:18.412Z,80.21
2023-04-15T21:53:45.212Z,80.28
2023-04-15T21:56:12.099Z,80.92
2023-04-15T21:58:38.928Z,80.57
2023-04-15T22:01:06.093Z,80.62
2023-04-15T22:03:34.839Z,80.72
2023-04-15T22:06:03.188Z,80.71
2023-04-15T22:08:41.258Z,80.70
2023-04-15T22:11:28.769Z,80.46
2023-04-15T22:13:57.601Z,80.85
2023-04-15T22:16:25.877Z,80.79
2023-04-15T22:18:53.042Z,80.78
2023-04-15T22:21:19.890Z,80.77
2023-04-15T22:23:48.480Z,81.00
2023-04-15T22:26:15.695Z,81.24
2023-04-15T22:28:42.648Z,81.34
2023-04-15T22:31:09.593Z,81.05
2023-04-15T22:33:36.599Z,81.05
2023-04-15T22:36:03.569Z,81.18
2023-04-15T22:38:30.579Z,81.27
2023-04-15T22:40:58.520Z,81.21
2023-04-15T22:43:26.160Z,81.14
2023-04-15T22:45:55.028Z,81.23
2023-04-15T22:48:22.322Z,81.23
2023-04-15T22:50:50.147Z,81.39
2023-04-15T22:53:18.278Z,81.34
2023-04-15T22:55:46.849Z,81.36
2023-04-15T22:58:14.186Z,81.41
2023-04-15T23:00:41.171Z,81.44
2023-04-15T23:03:08.300Z,81.56
2023-04-15T23:05:35.509Z,81.59
2023-04-15T23:08:02.540Z,81.54
2023-04-15T23:10:30.071Z,81.41
2023-04-15T23:12:57.129Z,81.75
2023-04-15T23:15:24.016Z,81.78
2023-04-15T23:17:51.127Z,81.85
2023-04-15T23:20:18.114Z,81.81
2023-04-15T23:22:45.429Z,82.07
2023-04-15T23:25:12.331Z,81.69
2023-04-15T23:27:39.273Z,81.89
2023-04-15T23:30:07.082Z,81.70
2023-04-15T23:32:33.963Z,82.21
2023-04-15T23:35:01.068Z,82.02
2023-04-15T23:37:30.842Z,81.90
2023-04-15T23:39:57.815Z,82.36
2023-04-15T23:42:24.770Z,82.18
2023-04-15T23:44:51.740Z,82.50
2023-04-15T23:47:18.585Z,82.12
2023-04-15T23:49:45.560Z,82.33
2023-04-15T23:52:12.462Z,82.50
2023-04-15T23:54:40.047Z,82.32
2023-04-15T23:57:06.831Z,82.41
2023-04-15T23:59:33.808Z,82.34
